JBU2165 KBOS-KRSW
Flight info
| Callsign | JBU2165 |
|---|---|
| Flight time | 2h 59m |
| Altitude | 34000 |
| Route | PATSS7 PATSS NELIE BIZEX Q75 SLOJO Q103 CYNTA SHFTY6 |
| Aircraft | A321/M-SDE3FGHIRWY/LB1 |
Departure
| Time | 2026-05-04 10:25 |
|---|---|
| Airport | Boston Logan International Airport (KBOS) |
Arrival
| Time | 2026-05-04 13:24 |
|---|---|
| Airport | Southwest Florida International Airport (KRSW) |
| Time | Latitude | Longitude | Altitude | Speed | Heading |
|---|---|---|---|---|---|
| 2026-05-04 09:23 | 42.36799 | -71.01411 | 26 ft | 0 kts | 259° |
| 2026-05-04 10:13 | 42.36802 | -71.01384 | 27 ft | 4 kts | 259° |
| 2026-05-04 10:13 | 42.36807 | -71.01355 | 28 ft | 4 kts | 245° |
| 2026-05-04 10:14 | 42.36822 | -71.01332 | 29 ft | 4 kts | 188° |
| 2026-05-04 10:14 | 42.36842 | -71.01340 | 27 ft | 4 kts | 135° |
| 2026-05-04 10:16 | 42.36856 | -71.01358 | 28 ft | 0 kts | 135° |
| 2026-05-04 10:19 | 42.36982 | -71.01117 | 28 ft | 13 kts | 32° |
| 2026-05-04 10:19 | 42.37067 | -71.01059 | 26 ft | 14 kts | 25° |
| 2026-05-04 10:19 | 42.37153 | -71.01000 | 28 ft | 14 kts | 27° |
| 2026-05-04 10:19 | 42.37242 | -71.00944 | 28 ft | 14 kts | 25° |
| 2026-05-04 10:20 | 42.37334 | -71.00890 | 27 ft | 15 kts | 19° |
| 2026-05-04 10:20 | 42.37423 | -71.00849 | 27 ft | 9 kts | 19° |
| 2026-05-04 10:20 | 42.37442 | -71.00840 | 27 ft | 0 kts | 19° |
| 2026-05-04 10:20 | 42.37459 | -71.00832 | 28 ft | 5 kts | 19° |
| 2026-05-04 10:21 | 42.37502 | -71.00810 | 28 ft | 10 kts | 20° |
| 2026-05-04 10:21 | 42.37569 | -71.00777 | 26 ft | 10 kts | 20° |
| 2026-05-04 10:21 | 42.37639 | -71.00744 | 27 ft | 11 kts | 19° |
| 2026-05-04 10:21 | 42.37710 | -71.00709 | 27 ft | 11 kts | 19° |
| 2026-05-04 10:22 | 42.37802 | -71.00664 | 27 ft | 5 kts | 20° |
| 2026-05-04 10:22 | 42.37833 | -71.00635 | 26 ft | 6 kts | 53° |
| 2026-05-04 10:22 | 42.37836 | -71.00585 | 25 ft | 6 kts | 104° |
| 2026-05-04 10:23 | 42.37821 | -71.00534 | 26 ft | 6 kts | 110° |
| 2026-05-04 10:23 | 42.37804 | -71.00482 | 25 ft | 5 kts | 137° |
| 2026-05-04 10:25 | 42.34948 | -71.01765 | 967 ft | 161 kts | 191° |
| 2026-05-04 10:25 | 42.33790 | -71.01403 | 1418 ft | 194 kts | 151° |
| 2026-05-04 10:25 | 42.32824 | -70.99919 | 1594 ft | 224 kts | 134° |
| 2026-05-04 10:25 | 42.31912 | -70.98155 | 1955 ft | 236 kts | 123° |
| 2026-05-04 10:26 | 42.31219 | -70.96062 | 2192 ft | 252 kts | 125° |
| 2026-05-04 10:26 | 42.29952 | -70.94450 | 2342 ft | 255 kts | 165° |
| 2026-05-04 10:26 | 42.28266 | -70.94162 | 2787 ft | 248 kts | 195° |
| 2026-05-04 10:26 | 42.26665 | -70.94928 | 3360 ft | 243 kts | 219° |
| 2026-05-04 10:27 | 42.25478 | -70.96502 | 3969 ft | 239 kts | 244° |
| 2026-05-04 10:27 | 42.24911 | -70.98572 | 4651 ft | 236 kts | 261° |
| 2026-05-04 10:27 | 42.24537 | -71.00745 | 5325 ft | 239 kts | 261° |
| 2026-05-04 10:27 | 42.24159 | -71.02941 | 6008 ft | 242 kts | 261° |
| 2026-05-04 10:28 | 42.23775 | -71.05162 | 6667 ft | 244 kts | 260° |
| 2026-05-04 10:28 | 42.23386 | -71.07407 | 7299 ft | 248 kts | 260° |
| 2026-05-04 10:28 | 42.22990 | -71.09686 | 7950 ft | 251 kts | 260° |
| 2026-05-04 10:28 | 42.22589 | -71.11995 | 8601 ft | 254 kts | 259° |
| 2026-05-04 10:29 | 42.22181 | -71.14334 | 9249 ft | 258 kts | 259° |
| 2026-05-04 10:29 | 42.21773 | -71.16672 | 9873 ft | 261 kts | 259° |
| 2026-05-04 10:29 | 42.21352 | -71.19089 | 10287 ft | 273 kts | 259° |
| 2026-05-04 10:29 | 42.20903 | -71.21672 | 10420 ft | 293 kts | 259° |
| 2026-05-04 10:30 | 42.20422 | -71.24435 | 10547 ft | 312 kts | 259° |
| 2026-05-04 10:30 | 42.19909 | -71.27369 | 10689 ft | 330 kts | 259° |
| 2026-05-04 10:30 | 42.19374 | -71.30419 | 11109 ft | 337 kts | 259° |
| 2026-05-04 10:30 | 42.18830 | -71.33505 | 11710 ft | 339 kts | 259° |
| 2026-05-04 10:31 | 42.18281 | -71.36611 | 12345 ft | 341 kts | 259° |
| 2026-05-04 10:31 | 42.17727 | -71.39730 | 12981 ft | 342 kts | 259° |
| 2026-05-04 10:32 | 42.14345 | -71.58758 | 16284 ft | 356 kts | 259° |
| 2026-05-04 10:33 | 42.13766 | -71.62010 | 16804 ft | 359 kts | 259° |
| 2026-05-04 10:33 | 42.13179 | -71.65294 | 17322 ft | 362 kts | 259° |
| 2026-05-04 10:33 | 42.12585 | -71.68601 | 17845 ft | 365 kts | 259° |
| 2026-05-04 10:33 | 42.11982 | -71.71934 | 18340 ft | 368 kts | 259° |
| 2026-05-04 10:34 | 42.11376 | -71.75292 | 18773 ft | 370 kts | 259° |
| 2026-05-04 10:34 | 42.10768 | -71.78671 | 19212 ft | 372 kts | 259° |
| 2026-05-04 10:34 | 42.10562 | -71.79814 | 19360 ft | 373 kts | 259° |
| 2026-05-04 10:34 | 42.09809 | -71.83990 | 19889 ft | 376 kts | 259° |
| 2026-05-04 10:35 | 42.09186 | -71.87427 | 20328 ft | 378 kts | 259° |
| 2026-05-04 10:35 | 42.08495 | -71.90801 | 20747 ft | 382 kts | 251° |
| 2026-05-04 10:35 | 42.07200 | -71.94016 | 21139 ft | 390 kts | 242° |
| 2026-05-04 10:35 | 42.05755 | -71.97069 | 21537 ft | 392 kts | 241° |
| 2026-05-04 10:36 | 42.04262 | -72.00173 | 21936 ft | 395 kts | 241° |
| 2026-05-04 10:36 | 42.02756 | -72.03280 | 22327 ft | 397 kts | 241° |
| 2026-05-04 10:36 | 42.01240 | -72.06405 | 22713 ft | 400 kts | 241° |
| 2026-05-04 10:36 | 41.99720 | -72.09543 | 23115 ft | 401 kts | 241° |
| 2026-05-04 10:37 | 41.98713 | -72.11626 | 23390 ft | 402 kts | 241° |
| 2026-05-04 10:37 | 41.97184 | -72.14784 | 23748 ft | 404 kts | 241° |
| 2026-05-04 10:37 | 41.95648 | -72.17956 | 24081 ft | 405 kts | 241° |
| 2026-05-04 10:37 | 41.94106 | -72.21140 | 24407 ft | 407 kts | 241° |
| 2026-05-04 10:39 | 41.84717 | -72.40489 | 26247 ft | 417 kts | 240° |
| 2026-05-04 10:39 | 41.83128 | -72.43744 | 26583 ft | 418 kts | 240° |
| 2026-05-04 10:39 | 41.81553 | -72.46961 | 26918 ft | 419 kts | 240° |
| 2026-05-04 10:40 | 41.79951 | -72.50231 | 27224 ft | 420 kts | 240° |
| 2026-05-04 10:40 | 41.78345 | -72.53511 | 27534 ft | 422 kts | 240° |
| 2026-05-04 10:40 | 41.76737 | -72.56793 | 27846 ft | 421 kts | 240° |
| 2026-05-04 10:40 | 41.75123 | -72.60079 | 28162 ft | 421 kts | 240° |
| 2026-05-04 10:41 | 41.73521 | -72.63339 | 28650 ft | 418 kts | 240° |
| 2026-05-04 10:41 | 41.71925 | -72.66581 | 29096 ft | 416 kts | 240° |
| 2026-05-04 10:41 | 41.70335 | -72.69813 | 29518 ft | 415 kts | 240° |
| 2026-05-04 10:41 | 41.68750 | -72.73030 | 29918 ft | 413 kts | 240° |
| 2026-05-04 10:42 | 41.67169 | -72.76236 | 30293 ft | 411 kts | 240° |
| 2026-05-04 10:42 | 41.65595 | -72.79424 | 30624 ft | 410 kts | 240° |
| 2026-05-04 10:42 | 41.64024 | -72.82605 | 30958 ft | 409 kts | 240° |
| 2026-05-04 10:42 | 41.62455 | -72.85777 | 31265 ft | 409 kts | 240° |
| 2026-05-04 10:43 | 41.60908 | -72.88900 | 31561 ft | 408 kts | 240° |
| 2026-05-04 10:44 | 41.49966 | -73.10922 | 33474 ft | 405 kts | 240° |
| 2026-05-04 10:45 | 41.48400 | -73.14048 | 33726 ft | 405 kts | 240° |
| 2026-05-04 10:45 | 41.46833 | -73.17176 | 33943 ft | 405 kts | 240° |
| 2026-05-04 10:45 | 41.45270 | -73.20301 | 33999 ft | 405 kts | 240° |
| 2026-05-04 10:46 | 41.42168 | -73.26505 | 34001 ft | 405 kts | 240° |
| 2026-05-04 10:46 | 41.39042 | -73.32742 | 33988 ft | 405 kts | 239° |
| 2026-05-04 10:47 | 41.35908 | -73.38966 | 33998 ft | 404 kts | 239° |
| 2026-05-04 10:47 | 41.32776 | -73.45169 | 33998 ft | 403 kts | 239° |
| 2026-05-04 10:49 | 41.20249 | -73.69915 | 33992 ft | 404 kts | 239° |
| 2026-05-04 10:50 | 41.17102 | -73.76095 | 34001 ft | 404 kts | 239° |
| 2026-05-04 10:52 | 41.03282 | -73.99767 | 34015 ft | 406 kts | 235° |
| 2026-05-04 10:52 | 40.99779 | -74.05636 | 34019 ft | 406 kts | 236° |
| 2026-05-04 10:54 | 40.85687 | -74.29099 | 34024 ft | 407 kts | 235° |
| 2026-05-04 10:56 | 40.71554 | -74.52474 | 33997 ft | 408 kts | 235° |
| 2026-05-04 10:57 | 40.67995 | -74.58316 | 34014 ft | 408 kts | 235° |
| 2026-05-04 10:57 | 40.64438 | -74.64149 | 34025 ft | 408 kts | 235° |
| 2026-05-04 10:58 | 40.60876 | -74.69982 | 34037 ft | 408 kts | 235° |
| 2026-05-04 10:58 | 40.57286 | -74.75773 | 34040 ft | 409 kts | 233° |
| 2026-05-04 10:59 | 40.53464 | -74.81274 | 34021 ft | 411 kts | 231° |
| 2026-05-04 10:59 | 40.49509 | -74.86686 | 34038 ft | 410 kts | 231° |
| 2026-05-04 11:00 | 40.45590 | -74.92120 | 34049 ft | 409 kts | 231° |
| 2026-05-04 11:02 | 40.30084 | -75.13949 | 34026 ft | 408 kts | 231° |
| 2026-05-04 11:05 | 40.01265 | -75.54884 | 34063 ft | 408 kts | 234° |
| 2026-05-04 11:06 | 39.97649 | -75.60586 | 34050 ft | 408 kts | 234° |
| 2026-05-04 11:06 | 39.93999 | -75.66252 | 34067 ft | 407 kts | 234° |
| 2026-05-04 11:10 | 39.68224 | -76.05603 | 34064 ft | 410 kts | 233° |
| 2026-05-04 11:12 | 39.53345 | -76.28120 | 34060 ft | 412 kts | 233° |
| 2026-05-04 11:12 | 39.49599 | -76.33753 | 34064 ft | 412 kts | 233° |
| 2026-05-04 11:13 | 39.45862 | -76.39336 | 34068 ft | 413 kts | 232° |
| 2026-05-04 11:13 | 39.41877 | -76.44725 | 34052 ft | 415 kts | 230° |
| 2026-05-04 11:14 | 39.37758 | -76.49951 | 34075 ft | 415 kts | 229° |
| 2026-05-04 11:16 | 39.21086 | -76.70633 | 34052 ft | 416 kts | 229° |
| 2026-05-04 11:16 | 39.16912 | -76.75807 | 34062 ft | 416 kts | 229° |
| 2026-05-04 11:17 | 39.12735 | -76.80972 | 34103 ft | 416 kts | 229° |
| 2026-05-04 11:19 | 38.95987 | -77.01555 | 34071 ft | 418 kts | 229° |
| 2026-05-04 11:19 | 38.91778 | -77.06706 | 34068 ft | 418 kts | 229° |
| 2026-05-04 11:20 | 38.87566 | -77.11858 | 34071 ft | 418 kts | 229° |
| 2026-05-04 11:20 | 38.83348 | -77.17005 | 34052 ft | 418 kts | 229° |
| 2026-05-04 11:22 | 38.66457 | -77.37517 | 34045 ft | 420 kts | 229° |
| 2026-05-04 11:23 | 38.62209 | -77.42658 | 34074 ft | 420 kts | 229° |
| 2026-05-04 11:25 | 38.47341 | -77.60569 | 34096 ft | 420 kts | 229° |
| 2026-05-04 11:25 | 38.43080 | -77.65684 | 34059 ft | 421 kts | 230° |
| 2026-05-04 11:27 | 38.23829 | -77.88691 | 34060 ft | 422 kts | 229° |
| 2026-05-04 11:28 | 38.19544 | -77.93783 | 34078 ft | 422 kts | 229° |
| 2026-05-04 11:28 | 38.15257 | -77.98872 | 34092 ft | 422 kts | 230° |
| 2026-05-04 11:29 | 38.10992 | -78.03924 | 34092 ft | 422 kts | 230° |
| 2026-05-04 11:29 | 38.06690 | -78.09004 | 34094 ft | 422 kts | 230° |
| 2026-05-04 11:33 | 37.74794 | -78.40626 | 34075 ft | 427 kts | 224° |
| 2026-05-04 11:33 | 37.70039 | -78.45138 | 34078 ft | 427 kts | 224° |
| 2026-05-04 11:34 | 37.65307 | -78.49615 | 34075 ft | 428 kts | 224° |
| 2026-05-04 11:34 | 37.60542 | -78.54119 | 34056 ft | 428 kts | 224° |
| 2026-05-04 11:35 | 37.55767 | -78.58621 | 34067 ft | 428 kts | 224° |
| 2026-05-04 11:35 | 37.50996 | -78.63114 | 34078 ft | 428 kts | 224° |
| 2026-05-04 11:36 | 37.46228 | -78.67606 | 34082 ft | 428 kts | 224° |
| 2026-05-04 11:36 | 37.41459 | -78.72094 | 34086 ft | 428 kts | 224° |
| 2026-05-04 11:37 | 37.36673 | -78.76577 | 34057 ft | 429 kts | 224° |
| 2026-05-04 11:37 | 37.31870 | -78.81062 | 34066 ft | 430 kts | 224° |
| 2026-05-04 11:38 | 37.27067 | -78.85553 | 34080 ft | 431 kts | 224° |
| 2026-05-04 11:38 | 37.22286 | -78.90009 | 34087 ft | 431 kts | 224° |
| 2026-05-04 11:39 | 37.17459 | -78.94495 | 34055 ft | 432 kts | 223° |
| 2026-05-04 11:41 | 37.00555 | -79.10199 | 34087 ft | 433 kts | 224° |
| 2026-05-04 11:41 | 36.95702 | -79.14686 | 34051 ft | 434 kts | 224° |
| 2026-05-04 11:42 | 36.90829 | -79.19190 | 34063 ft | 436 kts | 224° |
| 2026-05-04 11:42 | 36.85939 | -79.23689 | 34076 ft | 437 kts | 223° |
| 2026-05-04 11:43 | 36.81072 | -79.28160 | 34095 ft | 437 kts | 223° |
| 2026-05-04 11:43 | 36.76178 | -79.32664 | 34112 ft | 437 kts | 224° |
| 2026-05-04 11:44 | 36.71277 | -79.37169 | 34098 ft | 437 kts | 223° |
| 2026-05-04 11:44 | 36.66378 | -79.41658 | 34115 ft | 437 kts | 223° |
| 2026-05-04 11:45 | 36.61473 | -79.46140 | 34112 ft | 438 kts | 224° |
| 2026-05-04 11:45 | 36.56587 | -79.50594 | 34114 ft | 438 kts | 224° |
| 2026-05-04 11:46 | 36.51662 | -79.55074 | 34067 ft | 438 kts | 224° |
| 2026-05-04 11:46 | 36.46745 | -79.59538 | 34105 ft | 436 kts | 224° |
| 2026-05-04 11:47 | 36.41850 | -79.63989 | 34113 ft | 435 kts | 224° |
| 2026-05-04 11:47 | 36.36970 | -79.68418 | 34116 ft | 434 kts | 224° |
| 2026-05-04 11:48 | 36.32098 | -79.72839 | 34132 ft | 434 kts | 224° |
| 2026-05-04 11:48 | 36.27259 | -79.77211 | 34115 ft | 432 kts | 224° |
| 2026-05-04 11:49 | 36.22409 | -79.81586 | 34121 ft | 430 kts | 225° |
| 2026-05-04 11:49 | 36.17579 | -79.85950 | 34130 ft | 429 kts | 225° |
| 2026-05-04 11:50 | 36.12753 | -79.90297 | 34129 ft | 428 kts | 225° |
| 2026-05-04 11:50 | 36.07929 | -79.94618 | 34130 ft | 428 kts | 225° |
| 2026-05-04 11:51 | 36.02806 | -79.98517 | 34095 ft | 444 kts | 213° |
| 2026-05-04 11:51 | 35.97042 | -80.01367 | 34102 ft | 447 kts | 211° |
| 2026-05-04 11:52 | 35.91267 | -80.04209 | 34115 ft | 447 kts | 212° |
| 2026-05-04 11:52 | 35.85524 | -80.07048 | 34124 ft | 447 kts | 212° |
| 2026-05-04 11:53 | 35.79745 | -80.09901 | 34091 ft | 447 kts | 212° |
| 2026-05-04 11:53 | 35.73959 | -80.12741 | 34101 ft | 448 kts | 212° |
| 2026-05-04 11:55 | 35.50788 | -80.24103 | 34172 ft | 448 kts | 211° |
| 2026-05-04 11:56 | 35.44999 | -80.26926 | 34181 ft | 448 kts | 211° |
| 2026-05-04 11:56 | 35.39249 | -80.29728 | 34176 ft | 448 kts | 211° |
| 2026-05-04 11:57 | 35.33459 | -80.32545 | 34140 ft | 448 kts | 211° |
| 2026-05-04 11:57 | 35.27670 | -80.35357 | 34149 ft | 447 kts | 211° |
| 2026-05-04 11:58 | 35.21881 | -80.38168 | 34150 ft | 447 kts | 211° |
| 2026-05-04 11:58 | 35.16095 | -80.40972 | 34142 ft | 447 kts | 211° |
| 2026-05-04 11:59 | 35.10336 | -80.43754 | 34111 ft | 447 kts | 211° |
| 2026-05-04 11:59 | 35.04548 | -80.46550 | 34117 ft | 447 kts | 211° |
| 2026-05-04 12:00 | 34.98762 | -80.49339 | 34112 ft | 447 kts | 211° |
| 2026-05-04 12:00 | 34.92962 | -80.52125 | 34119 ft | 447 kts | 211° |
| 2026-05-04 12:01 | 34.87174 | -80.54914 | 34104 ft | 447 kts | 211° |
| 2026-05-04 12:02 | 34.67016 | -80.64565 | 34157 ft | 445 kts | 210° |
| 2026-05-04 12:03 | 34.61184 | -80.67186 | 34115 ft | 448 kts | 206° |
| 2026-05-04 12:03 | 34.55236 | -80.69370 | 34132 ft | 450 kts | 204° |
| 2026-05-04 12:04 | 34.49208 | -80.71466 | 34137 ft | 450 kts | 205° |
| 2026-05-04 12:04 | 34.43214 | -80.73639 | 34145 ft | 449 kts | 205° |
| 2026-05-04 12:05 | 34.37247 | -80.75871 | 34121 ft | 449 kts | 205° |
| 2026-05-04 12:05 | 34.31281 | -80.78105 | 34136 ft | 449 kts | 205° |
| 2026-05-04 12:06 | 34.25311 | -80.80318 | 34145 ft | 449 kts | 205° |
| 2026-05-04 12:06 | 34.19371 | -80.82503 | 34148 ft | 449 kts | 205° |
| 2026-05-04 12:07 | 34.13394 | -80.84698 | 34114 ft | 449 kts | 205° |
| 2026-05-04 12:07 | 34.07420 | -80.86896 | 34135 ft | 449 kts | 205° |
| 2026-05-04 12:08 | 34.01449 | -80.89097 | 34152 ft | 449 kts | 205° |
| 2026-05-04 12:08 | 33.95471 | -80.91292 | 34151 ft | 449 kts | 204° |
| 2026-05-04 12:09 | 33.89491 | -80.93475 | 34161 ft | 448 kts | 204° |
| 2026-05-04 12:09 | 33.83563 | -80.95647 | 34144 ft | 448 kts | 204° |
| 2026-05-04 12:10 | 33.77601 | -80.97822 | 34149 ft | 448 kts | 204° |
| 2026-05-04 12:10 | 33.71637 | -80.99999 | 34150 ft | 448 kts | 204° |
| 2026-05-04 12:11 | 33.65675 | -81.02174 | 34154 ft | 448 kts | 204° |
| 2026-05-04 12:11 | 33.59709 | -81.04347 | 34129 ft | 448 kts | 204° |
| 2026-05-04 12:12 | 33.53750 | -81.06509 | 34139 ft | 447 kts | 204° |
| 2026-05-04 12:12 | 33.47793 | -81.08681 | 34146 ft | 447 kts | 204° |
| 2026-05-04 12:14 | 33.23991 | -81.17271 | 34167 ft | 447 kts | 204° |
| 2026-05-04 12:15 | 33.18037 | -81.19422 | 34170 ft | 447 kts | 204° |
| 2026-05-04 12:15 | 33.12083 | -81.21566 | 34169 ft | 447 kts | 204° |
| 2026-05-04 12:16 | 33.06130 | -81.23707 | 34172 ft | 447 kts | 204° |
| 2026-05-04 12:16 | 33.00175 | -81.25834 | 34176 ft | 447 kts | 204° |
| 2026-05-04 12:17 | 32.94217 | -81.27959 | 34173 ft | 447 kts | 204° |
| 2026-05-04 12:17 | 32.88265 | -81.30094 | 34175 ft | 446 kts | 204° |
| 2026-05-04 12:18 | 32.82323 | -81.32222 | 34149 ft | 446 kts | 204° |
| 2026-05-04 12:18 | 32.76384 | -81.34343 | 34160 ft | 445 kts | 203° |
| 2026-05-04 12:19 | 32.70446 | -81.36457 | 34160 ft | 445 kts | 203° |
| 2026-05-04 12:19 | 32.64513 | -81.38563 | 34160 ft | 445 kts | 203° |
| 2026-05-04 12:20 | 32.58584 | -81.40670 | 34126 ft | 445 kts | 203° |
| 2026-05-04 12:20 | 32.52657 | -81.42768 | 34144 ft | 445 kts | 203° |
| 2026-05-04 12:21 | 32.46761 | -81.44851 | 34151 ft | 445 kts | 203° |
| 2026-05-04 12:21 | 32.40837 | -81.46951 | 34155 ft | 444 kts | 203° |
| 2026-05-04 12:22 | 32.34904 | -81.49049 | 34162 ft | 444 kts | 203° |
| 2026-05-04 12:22 | 32.28977 | -81.51140 | 34155 ft | 444 kts | 203° |
| 2026-05-04 12:23 | 32.23049 | -81.53231 | 34162 ft | 445 kts | 203° |
| 2026-05-04 12:23 | 32.17115 | -81.55309 | 34166 ft | 445 kts | 203° |
| 2026-05-04 12:24 | 32.11184 | -81.57393 | 34175 ft | 445 kts | 203° |
| 2026-05-04 12:24 | 32.06249 | -81.59130 | 34144 ft | 445 kts | 203° |
| 2026-05-04 12:25 | 31.99356 | -81.61544 | 34159 ft | 445 kts | 203° |
| 2026-05-04 12:25 | 31.93422 | -81.63618 | 34165 ft | 445 kts | 203° |
| 2026-05-04 12:26 | 31.88491 | -81.65343 | 34164 ft | 444 kts | 203° |
| 2026-05-04 12:26 | 31.82561 | -81.67416 | 34166 ft | 444 kts | 203° |
| 2026-05-04 12:27 | 31.76631 | -81.69486 | 34139 ft | 444 kts | 203° |
| 2026-05-04 12:27 | 31.70705 | -81.71542 | 34154 ft | 444 kts | 203° |
| 2026-05-04 12:28 | 31.64781 | -81.73599 | 34156 ft | 444 kts | 203° |
| 2026-05-04 12:28 | 31.58855 | -81.75658 | 34195 ft | 444 kts | 203° |
| 2026-05-04 12:29 | 31.52966 | -81.77697 | 34170 ft | 444 kts | 203° |
| 2026-05-04 12:29 | 31.47044 | -81.79749 | 34180 ft | 444 kts | 203° |
| 2026-05-04 12:30 | 31.41115 | -81.81797 | 34181 ft | 444 kts | 203° |
| 2026-05-04 12:30 | 31.35185 | -81.83840 | 34177 ft | 444 kts | 203° |
| 2026-05-04 12:31 | 31.29253 | -81.85888 | 34171 ft | 444 kts | 203° |
| 2026-05-04 12:31 | 31.23320 | -81.87936 | 34126 ft | 444 kts | 203° |
| 2026-05-04 12:32 | 31.14415 | -81.90995 | 34132 ft | 445 kts | 203° |
| 2026-05-04 12:33 | 31.08471 | -81.93033 | 34142 ft | 445 kts | 203° |
| 2026-05-04 12:33 | 31.02518 | -81.95074 | 34145 ft | 446 kts | 203° |
| 2026-05-04 12:34 | 30.96568 | -81.97117 | 34142 ft | 446 kts | 204° |
| 2026-05-04 12:34 | 30.90647 | -81.99145 | 34168 ft | 447 kts | 204° |
| 2026-05-04 12:35 | 30.84673 | -82.01179 | 34177 ft | 448 kts | 204° |
| 2026-05-04 12:35 | 30.78694 | -82.03210 | 34203 ft | 448 kts | 204° |
| 2026-05-04 12:36 | 30.72708 | -82.05254 | 34212 ft | 448 kts | 204° |
| 2026-05-04 12:36 | 30.66720 | -82.07298 | 34195 ft | 449 kts | 204° |
| 2026-05-04 12:37 | 30.60674 | -82.09217 | 34200 ft | 456 kts | 198° |
| 2026-05-04 12:37 | 30.54276 | -82.09918 | 34188 ft | 464 kts | 192° |
| 2026-05-04 12:38 | 30.47881 | -82.10514 | 34203 ft | 464 kts | 193° |
| 2026-05-04 12:38 | 30.41445 | -82.11123 | 34193 ft | 464 kts | 193° |
| 2026-05-04 12:39 | 30.35007 | -82.11727 | 34049 ft | 463 kts | 193° |
| 2026-05-04 12:39 | 30.31805 | -82.12026 | 33779 ft | 462 kts | 192° |
| 2026-05-04 12:39 | 30.28601 | -82.12325 | 33515 ft | 461 kts | 192° |
| 2026-05-04 12:39 | 30.25398 | -82.12622 | 33256 ft | 461 kts | 192° |
| 2026-05-04 12:40 | 30.22202 | -82.12918 | 33145 ft | 460 kts | 192° |
| 2026-05-04 12:40 | 30.15722 | -82.12678 | 33131 ft | 476 kts | 177° |
| 2026-05-04 12:41 | 30.09198 | -82.11341 | 33174 ft | 481 kts | 177° |
| 2026-05-04 12:41 | 30.02606 | -82.10002 | 33177 ft | 481 kts | 178° |
| 2026-05-04 12:42 | 29.95998 | -82.08672 | 33184 ft | 481 kts | 178° |
| 2026-05-04 12:42 | 29.89387 | -82.07345 | 33168 ft | 482 kts | 178° |
| 2026-05-04 12:43 | 29.82779 | -82.06017 | 33129 ft | 483 kts | 178° |
| 2026-05-04 12:43 | 29.76147 | -82.04693 | 33134 ft | 484 kts | 178° |
| 2026-05-04 12:44 | 29.69529 | -82.03371 | 33140 ft | 486 kts | 178° |
| 2026-05-04 12:44 | 29.62865 | -82.02033 | 33147 ft | 487 kts | 178° |
| 2026-05-04 12:45 | 29.56192 | -82.00688 | 33104 ft | 487 kts | 178° |
| 2026-05-04 12:45 | 29.49503 | -81.99350 | 33111 ft | 488 kts | 179° |
| 2026-05-04 12:46 | 29.42799 | -81.98018 | 33114 ft | 489 kts | 179° |
| 2026-05-04 12:46 | 29.36076 | -81.96682 | 33129 ft | 490 kts | 179° |
| 2026-05-04 12:47 | 29.29398 | -81.95356 | 33097 ft | 491 kts | 179° |
| 2026-05-04 12:47 | 29.22666 | -81.94029 | 33110 ft | 491 kts | 179° |
| 2026-05-04 12:48 | 29.15918 | -81.92699 | 33124 ft | 492 kts | 179° |
| 2026-05-04 12:48 | 29.09169 | -81.91366 | 33132 ft | 492 kts | 179° |
| 2026-05-04 12:49 | 29.02421 | -81.90037 | 33133 ft | 492 kts | 179° |
| 2026-05-04 12:49 | 28.95670 | -81.88709 | 33105 ft | 492 kts | 179° |
| 2026-05-04 12:50 | 28.88970 | -81.87394 | 33122 ft | 492 kts | 179° |
| 2026-05-04 12:50 | 28.82220 | -81.86065 | 33140 ft | 492 kts | 179° |
| 2026-05-04 12:51 | 28.75472 | -81.84729 | 33141 ft | 492 kts | 179° |
| 2026-05-04 12:51 | 28.68731 | -81.83386 | 32763 ft | 491 kts | 179° |
| 2026-05-04 12:51 | 28.65355 | -81.82713 | 32017 ft | 494 kts | 178° |
| 2026-05-04 12:52 | 28.61938 | -81.82043 | 31084 ft | 500 kts | 178° |
| 2026-05-04 12:52 | 28.58486 | -81.81368 | 30056 ft | 508 kts | 178° |
| 2026-05-04 12:52 | 28.54990 | -81.80675 | 28934 ft | 513 kts | 176° |
| 2026-05-04 12:52 | 28.51516 | -81.79853 | 28386 ft | 501 kts | 174° |
| 2026-05-04 12:53 | 28.48149 | -81.78907 | 28145 ft | 499 kts | 172° |
| 2026-05-04 12:53 | 28.44809 | -81.77888 | 27801 ft | 496 kts | 171° |
| 2026-05-04 12:53 | 28.41502 | -81.76852 | 27389 ft | 491 kts | 171° |
| 2026-05-04 12:53 | 28.38256 | -81.75852 | 26997 ft | 487 kts | 172° |
| 2026-05-04 12:54 | 28.34952 | -81.74868 | 26589 ft | 483 kts | 172° |
| 2026-05-04 12:54 | 28.31751 | -81.73948 | 26194 ft | 479 kts | 172° |
| 2026-05-04 12:54 | 28.28525 | -81.73040 | 25803 ft | 475 kts | 172° |
| 2026-05-04 12:54 | 28.25333 | -81.72147 | 25414 ft | 471 kts | 172° |
| 2026-05-04 12:55 | 28.22153 | -81.71257 | 25032 ft | 468 kts | 172° |
| 2026-05-04 12:55 | 28.19011 | -81.70376 | 24647 ft | 464 kts | 172° |
| 2026-05-04 12:55 | 28.15886 | -81.69497 | 24266 ft | 461 kts | 172° |
| 2026-05-04 12:55 | 28.12787 | -81.68617 | 23886 ft | 458 kts | 172° |
| 2026-05-04 12:56 | 28.09711 | -81.67748 | 23498 ft | 453 kts | 174° |
| 2026-05-04 12:56 | 28.06630 | -81.67264 | 23129 ft | 442 kts | 184° |
| 2026-05-04 12:56 | 28.03593 | -81.67350 | 22774 ft | 432 kts | 193° |
| 2026-05-04 12:56 | 28.00707 | -81.67953 | 22425 ft | 422 kts | 201° |
| 2026-05-04 12:57 | 27.97874 | -81.68787 | 22073 ft | 420 kts | 201° |
| 2026-05-04 12:57 | 27.95043 | -81.69611 | 21741 ft | 418 kts | 200° |
| 2026-05-04 12:57 | 27.92229 | -81.70421 | 21390 ft | 416 kts | 200° |
| 2026-05-04 12:57 | 27.89428 | -81.71221 | 21043 ft | 414 kts | 200° |
| 2026-05-04 12:58 | 27.86622 | -81.71937 | 20746 ft | 416 kts | 193° |
| 2026-05-04 12:58 | 27.83695 | -81.71896 | 20500 ft | 427 kts | 175° |
| 2026-05-04 12:58 | 27.80783 | -81.71137 | 20232 ft | 429 kts | 172° |
| 2026-05-04 12:58 | 27.77891 | -81.70313 | 19988 ft | 428 kts | 171° |
| 2026-05-04 12:59 | 27.75026 | -81.69476 | 19572 ft | 424 kts | 171° |
| 2026-05-04 12:59 | 27.72214 | -81.68649 | 19330 ft | 422 kts | 171° |
| 2026-05-04 12:59 | 27.69373 | -81.67819 | 19096 ft | 421 kts | 171° |
| 2026-05-04 12:59 | 27.66540 | -81.66995 | 18864 ft | 419 kts | 171° |
| 2026-05-04 13:00 | 27.63720 | -81.66179 | 18633 ft | 418 kts | 171° |
| 2026-05-04 13:00 | 27.60910 | -81.65372 | 18393 ft | 416 kts | 171° |
| 2026-05-04 13:00 | 27.58114 | -81.64569 | 18134 ft | 413 kts | 171° |
| 2026-05-04 13:00 | 27.55337 | -81.63772 | 17872 ft | 410 kts | 171° |
| 2026-05-04 13:01 | 27.52575 | -81.62981 | 17620 ft | 409 kts | 171° |
| 2026-05-04 13:01 | 27.49826 | -81.62195 | 17358 ft | 407 kts | 171° |
| 2026-05-04 13:01 | 27.47085 | -81.61408 | 17107 ft | 405 kts | 171° |
| 2026-05-04 13:01 | 27.44369 | -81.60624 | 16808 ft | 400 kts | 170° |
| 2026-05-04 13:02 | 27.41686 | -81.59848 | 16305 ft | 396 kts | 170° |
| 2026-05-04 13:02 | 27.39021 | -81.59081 | 15803 ft | 393 kts | 170° |
| 2026-05-04 13:02 | 27.36380 | -81.58326 | 15277 ft | 390 kts | 170° |
| 2026-05-04 13:02 | 27.33790 | -81.57588 | 14760 ft | 387 kts | 169° |
| 2026-05-04 13:03 | 27.31186 | -81.56845 | 14233 ft | 385 kts | 169° |
| 2026-05-04 13:03 | 27.28597 | -81.56105 | 13690 ft | 383 kts | 169° |
| 2026-05-04 13:03 | 27.26021 | -81.55368 | 13128 ft | 380 kts | 169° |
| 2026-05-04 13:03 | 27.23473 | -81.54639 | 12600 ft | 376 kts | 169° |
| 2026-05-04 13:04 | 27.20950 | -81.53918 | 12065 ft | 372 kts | 169° |
| 2026-05-04 13:04 | 27.18452 | -81.53202 | 11548 ft | 369 kts | 169° |
| 2026-05-04 13:04 | 27.15979 | -81.52495 | 11028 ft | 365 kts | 169° |
| 2026-05-04 13:04 | 27.13536 | -81.51798 | 10716 ft | 356 kts | 169° |
| 2026-05-04 13:05 | 27.11182 | -81.51127 | 10594 ft | 342 kts | 169° |
| 2026-05-04 13:05 | 27.08921 | -81.50481 | 10461 ft | 329 kts | 169° |
| 2026-05-04 13:05 | 27.06739 | -81.49859 | 10352 ft | 317 kts | 169° |
| 2026-05-04 13:05 | 27.04640 | -81.49263 | 10224 ft | 306 kts | 169° |
| 2026-05-04 13:06 | 27.02596 | -81.48682 | 10012 ft | 300 kts | 169° |
| 2026-05-04 13:06 | 27.00630 | -81.48044 | 9943 ft | 300 kts | 161° |
| 2026-05-04 13:06 | 26.98691 | -81.47090 | 9748 ft | 300 kts | 159° |
| 2026-05-04 13:06 | 26.96806 | -81.46147 | 9560 ft | 299 kts | 159° |
| 2026-05-04 13:07 | 26.94909 | -81.45197 | 9372 ft | 298 kts | 159° |
| 2026-05-04 13:07 | 26.93014 | -81.44247 | 9182 ft | 297 kts | 159° |
| 2026-05-04 13:07 | 26.91127 | -81.43299 | 8988 ft | 296 kts | 159° |
| 2026-05-04 13:07 | 26.89249 | -81.42359 | 8807 ft | 296 kts | 158° |
| 2026-05-04 13:08 | 26.87370 | -81.41421 | 8625 ft | 295 kts | 158° |
| 2026-05-04 13:08 | 26.85521 | -81.40496 | 8443 ft | 294 kts | 158° |
| 2026-05-04 13:08 | 26.83612 | -81.39619 | 8254 ft | 291 kts | 166° |
| 2026-05-04 13:08 | 26.81661 | -81.39220 | 8072 ft | 287 kts | 180° |
| 2026-05-04 13:09 | 26.79675 | -81.39255 | 7894 ft | 285 kts | 185° |
| 2026-05-04 13:09 | 26.77690 | -81.39332 | 7707 ft | 285 kts | 185° |
| 2026-05-04 13:09 | 26.75710 | -81.39400 | 7526 ft | 284 kts | 185° |
| 2026-05-04 13:09 | 26.73737 | -81.39463 | 7341 ft | 283 kts | 184° |
| 2026-05-04 13:10 | 26.71765 | -81.39527 | 7162 ft | 283 kts | 184° |
| 2026-05-04 13:10 | 26.69803 | -81.39590 | 6981 ft | 282 kts | 185° |
| 2026-05-04 13:10 | 26.67890 | -81.39970 | 6808 ft | 277 kts | 202° |
| 2026-05-04 13:10 | 26.66194 | -81.40933 | 6617 ft | 273 kts | 218° |
| 2026-05-04 13:11 | 26.64825 | -81.42380 | 6455 ft | 270 kts | 234° |
| 2026-05-04 13:11 | 26.63725 | -81.44071 | 6273 ft | 269 kts | 236° |
| 2026-05-04 13:11 | 26.62631 | -81.45764 | 6103 ft | 268 kts | 236° |
| 2026-05-04 13:11 | 26.61539 | -81.47452 | 5934 ft | 268 kts | 236° |
| 2026-05-04 13:12 | 26.60439 | -81.49144 | 5779 ft | 269 kts | 236° |
| 2026-05-04 13:12 | 26.59345 | -81.50827 | 5583 ft | 268 kts | 236° |
| 2026-05-04 13:12 | 26.58251 | -81.52508 | 5426 ft | 268 kts | 235° |
| 2026-05-04 13:12 | 26.57150 | -81.54197 | 5259 ft | 269 kts | 235° |
| 2026-05-04 13:13 | 26.56043 | -81.55896 | 5084 ft | 270 kts | 235° |
| 2026-05-04 13:13 | 26.54950 | -81.57574 | 4939 ft | 271 kts | 235° |
| 2026-05-04 13:13 | 26.53834 | -81.59283 | 4771 ft | 272 kts | 234° |
| 2026-05-04 13:13 | 26.52720 | -81.60991 | 4632 ft | 273 kts | 234° |
| 2026-05-04 13:14 | 26.51604 | -81.62704 | 4521 ft | 273 kts | 235° |
| 2026-05-04 13:14 | 26.50492 | -81.64418 | 4394 ft | 273 kts | 235° |
| 2026-05-04 13:14 | 26.49378 | -81.66133 | 4262 ft | 273 kts | 235° |
| 2026-05-04 13:14 | 26.48259 | -81.67857 | 4141 ft | 273 kts | 234° |
| 2026-05-04 13:15 | 26.47145 | -81.69570 | 4020 ft | 273 kts | 235° |
| 2026-05-04 13:15 | 26.46026 | -81.71292 | 4006 ft | 276 kts | 235° |
| 2026-05-04 13:15 | 26.44898 | -81.73033 | 4010 ft | 276 kts | 235° |
| 2026-05-04 13:15 | 26.43772 | -81.74766 | 4008 ft | 275 kts | 235° |
| 2026-05-04 13:16 | 26.42648 | -81.76495 | 4009 ft | 276 kts | 235° |
| 2026-05-04 13:16 | 26.41519 | -81.78227 | 4005 ft | 277 kts | 235° |
| 2026-05-04 13:16 | 26.40386 | -81.79961 | 4003 ft | 276 kts | 235° |
| 2026-05-04 13:16 | 26.39258 | -81.81691 | 4003 ft | 274 kts | 234° |
| 2026-05-04 13:17 | 26.38158 | -81.83366 | 3997 ft | 260 kts | 234° |
| 2026-05-04 13:17 | 26.37113 | -81.84944 | 3930 ft | 248 kts | 234° |
| 2026-05-04 13:17 | 26.36098 | -81.86471 | 3776 ft | 245 kts | 234° |
| 2026-05-04 13:17 | 26.35128 | -81.88009 | 3631 ft | 244 kts | 244° |
| 2026-05-04 13:18 | 26.34764 | -81.89821 | 3493 ft | 236 kts | 278° |
| 2026-05-04 13:18 | 26.35292 | -81.91484 | 3390 ft | 227 kts | 309° |
| 2026-05-04 13:18 | 26.36377 | -81.92695 | 3275 ft | 218 kts | 322° |
| 2026-05-04 13:18 | 26.37552 | -81.93750 | 3137 ft | 216 kts | 331° |
| 2026-05-04 13:19 | 26.38945 | -81.94233 | 3037 ft | 210 kts | 2° |
| 2026-05-04 13:19 | 26.39910 | -81.94094 | 2982 ft | 206 kts | 20° |
| 2026-05-04 13:19 | 26.41446 | -81.93014 | 3007 ft | 191 kts | 38° |
| 2026-05-04 13:19 | 26.42473 | -81.92103 | 2992 ft | 187 kts | 38° |
| 2026-05-04 13:20 | 26.43388 | -81.91088 | 2946 ft | 186 kts | 50° |
| 2026-05-04 13:20 | 26.44183 | -81.89952 | 2760 ft | 184 kts | 52° |
| 2026-05-04 13:20 | 26.44929 | -81.88828 | 2542 ft | 179 kts | 53° |
| 2026-05-04 13:20 | 26.45653 | -81.87724 | 2323 ft | 174 kts | 53° |
| 2026-05-04 13:21 | 26.46348 | -81.86662 | 2117 ft | 164 kts | 55° |
| 2026-05-04 13:21 | 26.46990 | -81.85680 | 1917 ft | 152 kts | 54° |
| 2026-05-04 13:21 | 26.47397 | -81.85057 | 1783 ft | 149 kts | 54° |
| 2026-05-04 13:21 | 26.48188 | -81.83844 | 1530 ft | 144 kts | 54° |
| 2026-05-04 13:22 | 26.48772 | -81.82949 | 1343 ft | 142 kts | 53° |
| 2026-05-04 13:22 | 26.49350 | -81.82063 | 1149 ft | 141 kts | 53° |
| 2026-05-04 13:22 | 26.49739 | -81.81469 | 1044 ft | 140 kts | 52° |
| 2026-05-04 13:22 | 26.50320 | -81.80580 | 824 ft | 142 kts | 53° |
| 2026-05-04 13:23 | 26.50896 | -81.79695 | 640 ft | 141 kts | 52° |
| 2026-05-04 13:23 | 26.51464 | -81.78822 | 459 ft | 138 kts | 53° |
| 2026-05-04 13:23 | 26.52036 | -81.77943 | 268 ft | 140 kts | 52° |
| 2026-05-04 13:23 | 26.52609 | -81.77065 | 101 ft | 140 kts | 52° |
| 2026-05-04 13:24 | 26.53148 | -81.76236 | 43 ft | 113 kts | 54° |
| 2026-05-04 13:24 | 26.53510 | -81.75681 | 44 ft | 63 kts | 54° |
| 2026-05-04 13:24 | 26.53681 | -81.75417 | 43 ft | 31 kts | 54° |
| 2026-05-04 13:25 | 26.53778 | -81.75166 | 41 ft | 10 kts | 109° |
| 2026-05-04 13:25 | 26.53720 | -81.75156 | 44 ft | 10 kts | 220° |
| 2026-05-04 13:25 | 26.53674 | -81.75220 | 42 ft | 11 kts | 233° |
| 2026-05-04 13:25 | 26.53622 | -81.75298 | 44 ft | 14 kts | 233° |
| 2026-05-04 13:26 | 26.53562 | -81.75391 | 41 ft | 15 kts | 234° |
| 2026-05-04 13:26 | 26.53499 | -81.75488 | 42 ft | 16 kts | 234° |
| 2026-05-04 13:26 | 26.53433 | -81.75589 | 45 ft | 16 kts | 234° |
| 2026-05-04 13:26 | 26.53364 | -81.75696 | 45 ft | 17 kts | 234° |
| 2026-05-04 13:27 | 26.53297 | -81.75799 | 45 ft | 13 kts | 234° |
| 2026-05-04 13:27 | 26.53241 | -81.75884 | 42 ft | 14 kts | 234° |
| 2026-05-04 13:27 | 26.53180 | -81.75978 | 43 ft | 16 kts | 234° |
| 2026-05-04 13:27 | 26.53128 | -81.76056 | 44 ft | 9 kts | 227° |
| 2026-05-04 13:28 | 26.53073 | -81.76054 | 44 ft | 8 kts | 145° |
| 2026-05-04 13:28 | 26.53031 | -81.76019 | 43 ft | 7 kts | 144° |
| 2026-05-04 13:28 | 26.52984 | -81.75981 | 44 ft | 10 kts | 144° |
| 2026-05-04 13:28 | 26.52918 | -81.75929 | 44 ft | 12 kts | 144° |
| 2026-05-04 13:29 | 26.52865 | -81.75877 | 43 ft | 8 kts | 120° |
| 2026-05-04 13:29 | 26.52871 | -81.75838 | 44 ft | 3 kts | 58° |
| 2026-05-04 13:29 | 26.52880 | -81.75826 | 42 ft | 1 kts | 54° |
| 2026-05-04 13:29 | 26.52885 | -81.75818 | 44 ft | 1 kts | 53° |
| 2026-05-04 13:30 | 26.52888 | -81.75813 | 44 ft | 0 kts | 54° |
| 2026-05-04 13:30 | 26.52889 | -81.75813 | 44 ft | 0 kts | 52° |